createdAt,value
2019-04-20T00:04:26.959Z,101778.31
2019-04-20T00:07:12.271Z,101776.75
2019-04-20T00:09:55.420Z,101773.38
2019-04-20T00:12:34.140Z,101771.89
2019-04-20T00:14:58.644Z,101768.61
2019-04-20T00:17:32.988Z,101769.80
2019-04-20T00:20:04.695Z,101774.30
2019-04-20T00:23:13.454Z,101770.56
2019-04-20T00:26:07.717Z,101764.91
2019-04-20T00:28:45.627Z,101773.55
2019-04-20T00:31:40.303Z,101776.53
2019-04-20T00:34:03.748Z,101771.66
2019-04-20T00:36:27.126Z,101764.28
2019-04-20T00:38:58.265Z,101764.11
2019-04-20T00:41:24.673Z,101761.36
2019-04-20T00:43:53.378Z,101765.93
2019-04-20T00:46:28.344Z,101762.42
2019-04-20T00:48:55.825Z,101759.05
2019-04-20T00:51:35.320Z,101758.05
2019-04-20T00:53:51.775Z,101756.45
2019-04-20T00:56:18.211Z,101753.55
2019-04-20T00:59:03.096Z,101750.99
2019-04-20T01:01:36.207Z,101748.58
2019-04-20T01:04:07.121Z,101758.03
2019-04-20T01:06:52.537Z,101754.56
2019-04-20T01:09:32.861Z,101756.62
2019-04-20T01:12:05.167Z,101749.63
2019-04-20T01:14:37.897Z,101752.74
2019-04-20T01:17:07.194Z,101751.87
2019-04-20T01:19:28.017Z,101750.97
2019-04-20T01:22:01.268Z,101752.35
2019-04-20T01:24:32.814Z,101759.66
2019-04-20T01:26:58.291Z,101758.89
2019-04-20T01:29:34.934Z,101761.30
2019-04-20T01:32:06.147Z,101762.13
2019-04-20T01:34:37.993Z,101763.95
2019-04-20T01:37:09.517Z,101768.01
2019-04-20T01:39:28.349Z,101762.14
2019-04-20T01:41:50.449Z,101761.50
2019-04-20T01:44:24.567Z,101757.85
2019-04-20T01:46:54.848Z,101763.88
2019-04-20T01:49:21.036Z,101760.28
2019-04-20T01:51:53.761Z,101762.55
2019-04-20T01:54:32.158Z,101760.86
2019-04-20T01:56:58.926Z,101765.79
2019-04-20T01:59:50.151Z,101769.48
2019-04-20T02:02:24.412Z,101766.56
2019-04-20T02:04:58.808Z,101773.86
2019-04-20T02:07:30.556Z,101770.58
2019-04-20T02:09:58.350Z,101772.13
2019-04-20T02:12:26.948Z,101771.11
2019-04-20T02:14:56.089Z,101769.14
2019-04-20T02:17:30.070Z,101772.56
2019-04-20T02:20:12.527Z,101778.72
2019-04-20T02:22:37.274Z,101781.67
2019-04-20T02:24:47.132Z,101773.55
2019-04-20T02:27:14.777Z,101777.61
2019-04-20T02:30:07.404Z,101773.19
2019-04-20T02:32:45.670Z,101774.88
2019-04-20T02:38:21.798Z,101775.52
2019-04-20T02:40:52.655Z,101773.55
2019-04-20T02:43:15.285Z,101775.86
2019-04-20T02:48:13.461Z,101777.29
2019-04-20T02:50:43.280Z,101772.22
2019-04-20T02:53:32.740Z,101773.81
2019-04-20T02:58:07.669Z,101777.93
2019-04-20T03:00:35.149Z,101774.44
2019-04-20T03:02:53.093Z,101770.49
2019-04-20T03:05:22.966Z,101773.06
2019-04-20T03:08:01.148Z,101771.55
2019-04-20T03:10:39.387Z,101775.50
2019-04-20T03:12:57.021Z,101768.62
2019-04-20T03:15:28.954Z,101770.72
2019-04-20T03:17:57.465Z,101769.27
2019-04-20T03:20:32.297Z,101773.81
2019-04-20T03:23:17.734Z,101767.86
2019-04-20T03:25:45.069Z,101774.01
2019-04-20T03:28:10.684Z,101774.48
2019-04-20T03:31:26.913Z,101771.09
2019-04-20T03:35:52.771Z,101770.35
2019-04-20T03:38:11.716Z,101777.20
2019-04-20T03:40:34.581Z,101776.75
2019-04-20T03:42:50.707Z,101769.28
2019-04-20T03:45:21.309Z,101776.83
2019-04-20T03:47:57.542Z,101773.24
2019-04-20T03:50:37.121Z,101780.42
2019-04-20T03:53:12.969Z,101779.09
2019-04-20T03:55:54.082Z,101777.87
2019-04-20T03:58:55.613Z,101775.31
2019-04-20T04:02:17.067Z,101777.78
2019-04-20T04:04:27.443Z,101774.68
2019-04-20T04:06:46.302Z,101777.41
2019-04-20T04:09:22.858Z,101776.80
2019-04-20T04:11:52.338Z,101772.97
2019-04-20T04:14:07.120Z,101771.94
2019-04-20T04:16:42.038Z,101775.12
2019-04-20T04:19:12.706Z,101779.56
2019-04-20T04:21:49.746Z,101774.95
2019-04-20T04:24:12.838Z,101781.34
2019-04-20T04:26:48.890Z,101774.16
2019-04-20T04:29:28.831Z,101776.95
2019-04-20T04:31:59.538Z,101777.98
2019-04-20T04:34:19.028Z,101782.10
2019-04-20T04:36:49.942Z,101780.33
2019-04-20T04:39:21.171Z,101790.22
2019-04-20T04:41:52.294Z,101791.71
2019-04-20T04:44:11.024Z,101786.91
2019-04-20T04:46:26.791Z,101797.45
2019-04-20T04:49:03.922Z,101799.14
2019-04-20T04:51:29.484Z,101800.90
2019-04-20T04:53:59.882Z,101805.52
2019-04-20T04:56:23.981Z,101805.42
2019-04-20T04:58:51.713Z,101804.17
2019-04-20T05:01:24.857Z,101805.38
2019-04-20T05:04:17.477Z,101810.44
2019-04-20T05:06:33.124Z,101810.31
2019-04-20T05:08:53.040Z,101809.25
2019-04-20T05:11:19.607Z,101808.50
2019-04-20T05:13:54.678Z,101810.86
2019-04-20T05:16:38.297Z,101806.48
2019-04-20T05:19:09.405Z,101800.08
2019-04-20T05:21:53.870Z,101803.97
2019-04-20T05:25:05.734Z,101805.39
2019-04-20T05:27:51.230Z,101812.61
2019-04-20T05:30:01.303Z,101822.91
2019-04-20T05:32:41.351Z,101824.72
2019-04-20T05:35:24.009Z,101819.41
2019-04-20T05:37:58.612Z,101814.20
2019-04-20T05:40:20.605Z,101808.13
2019-04-20T05:42:48.842Z,101817.53
2019-04-20T05:45:18.160Z,101811.16
2019-04-20T05:47:50.801Z,101811.41
2019-04-20T05:50:16.578Z,101821.02
2019-04-20T05:52:59.847Z,101818.36
2019-04-20T05:55:16.293Z,101825.27
2019-04-20T05:57:50.735Z,101823.75
2019-04-20T06:00:14.220Z,101819.09
2019-04-20T06:02:45.165Z,101825.41
2019-04-20T06:05:17.741Z,101834.44
2019-04-20T06:07:42.518Z,101828.16
2019-04-20T06:10:11.419Z,101826.13
2019-04-20T06:12:39.998Z,101830.55
2019-04-20T06:15:15.533Z,101832.06
2019-04-20T06:18:02.825Z,101836.40
2019-04-20T06:20:37.918Z,101839.11
2019-04-20T06:23:28.519Z,101839.38
2019-04-20T06:26:04.084Z,101840.89
2019-04-20T06:28:22.807Z,101835.94
2019-04-20T06:30:51.070Z,101843.03
2019-04-20T06:36:32.259Z,101841.70
2019-04-20T06:39:02.233Z,101841.36
2019-04-20T06:41:55.452Z,101847.44
2019-04-20T06:44:08.632Z,101844.20
2019-04-20T06:46:29.210Z,101844.20
2019-04-20T06:49:05.606Z,101846.36
2019-04-20T06:51:34.706Z,101842.63
2019-04-20T06:53:52.708Z,101843.28
2019-04-20T06:56:35.630Z,101848.00
2019-04-20T06:59:12.623Z,101845.05
2019-04-20T07:01:42.322Z,101852.11
2019-04-20T07:04:22.419Z,101852.03
2019-04-20T07:09:09.606Z,101843.64
2019-04-20T07:11:31.022Z,101846.84
2019-04-20T07:13:47.001Z,101842.38
2019-04-20T07:16:40.913Z,101842.80
2019-04-20T07:19:31.365Z,101850.63
2019-04-20T07:22:24.961Z,101854.47
2019-04-20T07:24:53.316Z,101851.19
2019-04-20T07:27:13.652Z,101857.13
2019-04-20T07:29:46.367Z,101855.59
2019-04-20T07:32:07.551Z,101853.02
2019-04-20T07:34:40.171Z,101853.52
2019-04-20T07:37:55.054Z,101860.45
2019-04-20T07:39:48.231Z,101863.73
2019-04-20T07:42:23.055Z,101860.18
2019-04-20T07:44:50.803Z,101852.34
2019-04-20T07:47:24.152Z,101846.55
2019-04-20T07:49:41.642Z,101852.62
2019-04-20T07:51:53.950Z,101852.93
2019-04-20T07:54:47.593Z,101846.94
2019-04-20T07:57:09.977Z,101847.94
2019-04-20T07:59:30.071Z,101842.75
2019-04-20T08:02:24.951Z,101847.78
2019-04-20T08:05:01.770Z,101849.59
2019-04-20T08:07:14.535Z,101851.57
2019-04-20T08:09:49.757Z,101845.12
2019-04-20T08:12:49.958Z,101848.85
2019-04-20T08:15:24.103Z,101842.38
2019-04-20T08:20:09.427Z,101849.60
2019-04-20T08:22:42.447Z,101845.48
2019-04-20T08:25:04.625Z,101847.71
2019-04-20T08:27:23.630Z,101851.33
2019-04-20T08:30:12.423Z,101845.44
2019-04-20T08:33:10.004Z,101835.38
2019-04-20T08:35:48.094Z,101842.88
2019-04-20T08:38:36.948Z,101839.08
2019-04-20T08:40:43.608Z,101834.39
2019-04-20T08:43:21.063Z,101826.90
2019-04-20T08:45:41.696Z,101823.22
2019-04-20T08:48:17.399Z,101829.66
2019-04-20T08:50:41.463Z,101825.98
2019-04-20T08:53:21.950Z,101824.47
2019-04-20T08:55:33.508Z,101824.80
2019-04-20T08:57:49.286Z,101818.84
2019-04-20T09:00:18.263Z,101820.75
2019-04-20T09:02:52.314Z,101812.29
2019-04-20T09:05:32.987Z,101817.81
2019-04-20T09:07:56.592Z,101813.00
2019-04-20T09:10:39.528Z,101809.99
2019-04-20T09:12:58.592Z,101808.73
2019-04-20T09:15:14.862Z,101804.27
2019-04-20T09:18:09.098Z,101797.33
2019-04-20T09:20:45.830Z,101798.86
2019-04-20T09:23:17.185Z,101800.88
2019-04-20T09:26:04.804Z,101801.89
2019-04-20T09:28:32.264Z,101792.67
2019-04-20T09:31:28.261Z,101792.77
2019-04-20T09:34:21.611Z,101785.42
2019-04-20T09:36:49.873Z,101784.60
2019-04-20T09:39:21.113Z,101778.43
2019-04-20T09:42:01.851Z,101777.69
2019-04-20T09:44:35.453Z,101781.75
2019-04-20T09:47:00.462Z,101774.78
2019-04-20T09:49:39.967Z,101775.89
2019-04-20T09:52:12.241Z,101775.00
2019-04-20T09:54:48.156Z,101781.36
2019-04-20T09:57:14.985Z,101775.48
2019-04-20T09:59:44.093Z,101777.61
2019-04-20T10:02:04.753Z,101786.48
2019-04-20T10:04:23.968Z,101777.26
2019-04-20T10:06:51.790Z,101776.33
2019-04-20T10:09:21.948Z,101771.02
2019-04-20T10:11:49.353Z,101770.81
2019-04-20T10:14:17.421Z,101769.98
2019-04-20T10:16:44.927Z,101766.33
2019-04-20T10:19:13.662Z,101766.59
2019-04-20T10:21:41.591Z,101751.80
2019-04-20T10:24:08.794Z,101752.02
2019-04-20T10:26:36.606Z,101755.48
2019-04-20T10:29:04.002Z,101759.48
2019-04-20T10:31:35.700Z,101752.65
2019-04-20T10:34:00.218Z,101754.30
2019-04-20T10:36:59.648Z,101747.86
2019-04-20T10:39:27.079Z,101751.01
2019-04-20T10:41:58.757Z,101748.59
2019-04-20T10:44:24.975Z,101747.87
2019-04-20T10:46:53.377Z,101744.32
2019-04-20T10:49:20.579Z,101743.95
2019-04-20T10:51:47.728Z,101738.00
2019-04-20T10:54:16.144Z,101733.59
2019-04-20T10:56:43.599Z,101737.20
2019-04-20T10:59:11.878Z,101739.20
2019-04-20T11:01:40.085Z,101739.69
2019-04-20T11:04:08.428Z,101734.97
2019-04-20T11:06:36.517Z,101733.44
2019-04-20T11:09:06.791Z,101732.36
2019-04-20T11:11:35.891Z,101725.78
2019-04-20T11:14:11.789Z,101729.19
2019-04-20T11:16:32.929Z,101721.10
2019-04-20T11:19:01.038Z,101717.20
2019-04-20T11:21:28.505Z,101712.15
2019-04-20T11:23:56.691Z,101707.84
2019-04-20T11:26:24.377Z,101717.17
2019-04-20T11:28:52.485Z,101711.48
2019-04-20T11:31:20.085Z,101698.16
2019-04-20T11:33:48.015Z,101696.62
2019-04-20T11:36:15.348Z,101695.04
2019-04-20T11:38:42.913Z,101688.25
2019-04-20T11:41:18.233Z,101686.05
2019-04-20T11:46:07.099Z,101684.08
2019-04-20T11:48:34.371Z,101689.94
2019-04-20T11:51:01.523Z,101680.49
2019-04-20T11:53:30.450Z,101670.30
2019-04-20T11:55:58.467Z,101673.13
2019-04-20T11:58:26.150Z,101666.39
2019-04-20T12:01:01.254Z,101667.31
2019-04-20T12:03:31.484Z,101665.62
2019-04-20T12:05:59.011Z,101656.90
2019-04-20T12:08:24.872Z,101660.83
2019-04-20T12:10:56.676Z,101653.04
2019-04-20T12:13:22.683Z,101653.19
2019-04-20T12:15:49.984Z,101644.28
2019-04-20T12:18:17.983Z,101645.30
2019-04-20T12:20:46.993Z,101639.56
2019-04-20T12:23:14.301Z,101633.50
2019-04-20T12:25:44.199Z,101634.79
2019-04-20T12:28:11.630Z,101632.15
2019-04-20T12:30:39.729Z,101628.60
2019-04-20T12:33:07.476Z,101622.56
2019-04-20T12:35:36.121Z,101620.75
2019-04-20T12:38:03.544Z,101614.77
2019-04-20T12:40:32.346Z,101607.41
2019-04-20T12:42:59.654Z,101612.39
2019-04-20T12:45:27.159Z,101611.98
2019-04-20T12:47:55.485Z,101616.55
2019-04-20T12:50:23.469Z,101612.97
2019-04-20T12:52:50.731Z,101612.44
2019-04-20T12:55:18.814Z,101610.34
2019-04-20T12:57:46.992Z,101608.46
2019-04-20T13:00:15.372Z,101596.58
2019-04-20T13:02:43.273Z,101594.17
2019-04-20T13:05:13.457Z,101587.96
2019-04-20T13:07:46.344Z,101588.34
2019-04-20T13:10:11.637Z,101599.34
2019-04-20T13:12:56.410Z,101590.13
2019-04-20T13:15:56.279Z,101582.27
2019-04-20T13:18:29.571Z,101585.89
2019-04-20T13:20:58.815Z,101573.66
2019-04-20T13:23:26.824Z,101566.91
2019-04-20T13:25:54.937Z,101564.64
2019-04-20T13:28:23.165Z,101564.28
2019-04-20T13:30:50.461Z,101555.34
2019-04-20T13:33:17.677Z,101558.22
2019-04-20T13:35:46.091Z,101553.84
2019-04-20T13:38:20.339Z,101548.17
2019-04-20T13:40:48.170Z,101546.64
2019-04-20T13:43:15.368Z,101543.95
2019-04-20T13:45:42.712Z,101542.03
2019-04-20T13:48:11.014Z,101533.77
2019-04-20T13:50:38.275Z,101531.92
2019-04-20T13:53:05.558Z,101530.56
2019-04-20T13:55:33.846Z,101537.23
2019-04-20T13:58:22.064Z,101533.27
2019-04-20T14:01:12.616Z,101522.84
2019-04-20T14:03:40.745Z,101515.45
2019-04-20T14:06:08.996Z,101512.26
2019-04-20T14:08:36.655Z,101507.22
2019-04-20T14:11:05.180Z,101499.98
2019-04-20T14:13:39.193Z,101503.42
2019-04-20T14:16:02.980Z,101500.12
2019-04-20T14:18:31.150Z,101495.44
2019-04-20T14:20:58.412Z,101508.77
2019-04-20T14:23:25.565Z,101483.77
2019-04-20T14:25:52.780Z,101485.94
2019-04-20T14:28:20.975Z,101480.41
2019-04-20T14:30:49.865Z,101476.78
2019-04-20T14:33:17.098Z,101484.37
2019-04-20T14:35:45.119Z,101489.30
2019-04-20T14:38:13.133Z,101476.00
2019-04-20T14:40:40.394Z,101468.48
2019-04-20T14:43:08.823Z,101461.06
2019-04-20T14:45:36.647Z,101458.77
2019-04-20T14:48:03.840Z,101461.67
2019-04-20T14:50:31.721Z,101459.08
2019-04-20T14:52:59.799Z,101455.75
2019-04-20T14:55:27.266Z,101449.54
2019-04-20T14:57:57.385Z,101448.87
2019-04-20T15:01:06.786Z,101449.33
2019-04-20T15:03:38.389Z,101455.11
2019-04-20T15:06:05.588Z,101449.36
2019-04-20T15:08:34.485Z,101447.13
2019-04-20T15:11:02.975Z,101440.42
2019-04-20T15:13:30.823Z,101435.36
2019-04-20T15:15:58.995Z,101432.91
2019-04-20T15:18:31.422Z,101430.81
2019-04-20T15:21:00.043Z,101442.02
2019-04-20T15:23:27.858Z,101428.61
2019-04-20T15:25:55.302Z,101421.91
2019-04-20T15:28:24.066Z,101417.90
2019-04-20T15:30:52.105Z,101422.82
2019-04-20T15:33:19.277Z,101418.78
2019-04-20T15:35:46.375Z,101418.84
2019-04-20T15:38:13.473Z,101418.23
2019-04-20T15:40:41.476Z,101414.44
2019-04-20T15:43:14.419Z,101411.92
2019-04-20T15:45:39.134Z,101409.93
2019-04-20T15:48:06.340Z,101409.22
2019-04-20T15:50:33.913Z,101406.92
2019-04-20T15:53:02.643Z,101409.00
2019-04-20T15:55:35.575Z,101407.85
2019-04-20T15:57:59.734Z,101408.84
2019-04-20T16:00:26.895Z,101408.38
2019-04-20T16:03:17.160Z,101404.34
2019-04-20T16:05:49.306Z,101403.84
2019-04-20T16:08:23.797Z,101399.51
2019-04-20T16:10:51.071Z,101393.66
2019-04-20T16:13:26.113Z,101396.34
2019-04-20T16:15:47.653Z,101392.69
2019-04-20T16:18:14.859Z,101398.42
2019-04-20T16:20:52.018Z,101388.19
2019-04-20T16:23:12.430Z,101383.84
2019-04-20T16:26:05.880Z,101389.81
2019-04-20T16:28:33.256Z,101387.47
2019-04-20T16:31:01.484Z,101380.45
2019-04-20T16:33:28.811Z,101382.52
2019-04-20T16:35:56.434Z,101379.83
2019-04-20T16:38:27.255Z,101374.83
2019-04-20T16:40:54.453Z,101371.83
2019-04-20T16:43:29.433Z,101369.69
2019-04-20T16:45:51.047Z,101371.03
2019-04-20T16:48:18.283Z,101367.62
2019-04-20T16:50:46.777Z,101363.44
2019-04-20T16:53:15.031Z,101360.82
2019-04-20T16:55:43.066Z,101359.00
2019-04-20T16:58:10.296Z,101359.72
2019-04-20T17:00:37.759Z,101355.73
2019-04-20T17:03:04.888Z,101354.63
2019-04-20T17:05:32.020Z,101353.98
2019-04-20T17:08:00.581Z,101354.38
2019-04-20T17:10:28.891Z,101345.77
2019-04-20T17:12:57.659Z,101339.22
2019-04-20T17:15:25.570Z,101345.94
2019-04-20T17:17:53.798Z,101341.81
2019-04-20T17:20:24.975Z,101341.69
2019-04-20T17:22:51.053Z,101340.69
2019-04-20T17:25:19.642Z,101337.75
2019-04-20T17:28:05.140Z,101346.55
2019-04-20T17:30:59.012Z,101344.75
2019-04-20T17:33:51.779Z,101343.98
2019-04-20T17:36:12.432Z,101341.66
2019-04-20T17:38:41.795Z,101348.86
2019-04-20T17:41:29.145Z,101340.98
2019-04-20T17:43:56.714Z,101335.19
2019-04-20T17:46:12.125Z,101340.23
2019-04-20T17:48:45.195Z,101341.61
2019-04-20T17:51:22.430Z,101338.08
2019-04-20T17:53:58.551Z,101344.33
2019-04-20T17:56:24.354Z,101340.30
2019-04-20T17:58:52.276Z,101339.14
2019-04-20T18:02:02.288Z,101341.81
2019-04-20T18:04:49.372Z,101339.17
2019-04-20T18:07:00.858Z,101342.72
2019-04-20T18:09:47.515Z,101346.91
2019-04-20T18:11:52.768Z,101343.71
2019-04-20T18:14:38.636Z,101345.05
2019-04-20T18:17:11.021Z,101346.58
2019-04-20T18:19:32.696Z,101350.74
2019-04-20T18:22:01.646Z,101354.59
2019-04-20T18:24:55.774Z,101354.71
2019-04-20T18:27:18.760Z,101355.86
2019-04-20T18:29:50.351Z,101359.02
2019-04-20T18:32:05.347Z,101365.81
2019-04-20T18:35:10.536Z,101361.80
2019-04-20T18:37:39.612Z,101369.93
2019-04-20T18:40:12.477Z,101369.31
2019-04-20T18:43:09.373Z,101370.23
2019-04-20T18:46:20.328Z,101372.97
2019-04-20T18:48:50.958Z,101378.89
2019-04-20T18:55:22.255Z,101379.30
2019-04-20T18:58:15.233Z,101384.23
2019-04-20T19:01:57.395Z,101385.22
2019-04-20T19:04:41.781Z,101383.39
2019-04-20T19:07:15.243Z,101384.78
2019-04-20T19:09:43.194Z,101387.20
2019-04-20T19:12:32.574Z,101386.73
2019-04-20T19:15:37.391Z,101389.98
2019-04-20T19:18:12.880Z,101385.58
2019-04-20T19:20:37.013Z,101389.22
2019-04-20T19:23:04.340Z,101389.27
2019-04-20T19:25:36.987Z,101394.72
2019-04-20T19:28:01.995Z,101396.34
2019-04-20T19:30:37.418Z,101396.91
2019-04-20T19:33:14.941Z,101401.42
2019-04-20T19:35:45.415Z,101404.74
2019-04-20T19:38:57.722Z,101401.67
2019-04-20T19:45:17.538Z,101405.14
2019-04-20T19:47:50.276Z,101405.80
2019-04-20T19:50:44.141Z,101412.40
2019-04-20T19:53:06.862Z,101412.53
2019-04-20T19:55:20.773Z,101413.41
2019-04-20T19:57:51.266Z,101414.67
2019-04-20T20:00:06.380Z,101413.25
2019-04-20T20:02:34.047Z,101411.54
2019-04-20T20:05:07.159Z,101419.75
2019-04-20T20:07:38.056Z,101421.26
2019-04-20T20:10:05.236Z,101419.56
2019-04-20T20:12:29.557Z,101419.92
2019-04-20T20:14:57.425Z,101421.98
2019-04-20T20:17:46.956Z,101429.97
2019-04-20T20:20:19.954Z,101423.20
2019-04-20T20:22:32.239Z,101428.13
2019-04-20T20:24:52.637Z,101431.77
2019-04-20T20:27:31.392Z,101427.70
2019-04-20T20:30:03.799Z,101428.08
2019-04-20T20:32:31.020Z,101427.52
2019-04-20T20:34:58.596Z,101439.98
2019-04-20T20:37:29.575Z,101434.36
2019-04-20T20:39:53.803Z,101436.67
2019-04-20T20:42:28.355Z,101433.87
2019-04-20T20:44:52.608Z,101437.98
2019-04-20T20:47:37.304Z,101438.41
2019-04-20T20:50:07.975Z,101443.81
2019-04-20T20:52:28.745Z,101450.79
2019-04-20T20:54:52.591Z,101451.11
2019-04-20T20:57:15.364Z,101455.80
2019-04-20T20:59:49.426Z,101452.48
2019-04-20T21:02:18.267Z,101448.71
2019-04-20T21:04:37.689Z,101446.46
2019-04-20T21:07:04.816Z,101450.64
2019-04-20T21:09:33.439Z,101450.95
2019-04-20T21:12:07.000Z,101449.56
2019-04-20T21:14:34.701Z,101451.45
2019-04-20T21:17:05.222Z,101451.91
2019-04-20T21:19:49.727Z,101450.41
2019-04-20T21:22:04.890Z,101449.16
2019-04-20T21:24:30.345Z,101453.31
2019-04-20T21:27:01.603Z,101452.74
2019-04-20T21:29:35.372Z,101458.81
2019-04-20T21:32:03.558Z,101459.36
2019-04-20T21:34:26.145Z,101462.54
2019-04-20T21:37:01.993Z,101455.97
2019-04-20T21:39:34.574Z,101457.22
2019-04-20T21:41:59.491Z,101452.14
2019-04-20T21:44:28.494Z,101454.95
2019-04-20T21:46:54.633Z,101457.03
2019-04-20T21:49:36.184Z,101459.42
2019-04-20T21:51:57.416Z,101462.82
2019-04-20T21:54:20.192Z,101461.66
2019-04-20T21:56:53.854Z,101460.95
2019-04-20T21:59:24.432Z,101454.82
2019-04-20T22:01:56.438Z,101464.16
2019-04-20T22:04:14.892Z,101460.69
2019-04-20T22:06:44.611Z,101457.80
2019-04-20T22:09:12.809Z,101463.07
2019-04-20T22:11:40.198Z,101463.58
2019-04-20T22:14:12.888Z,101461.42
2019-04-20T22:16:43.585Z,101463.73
2019-04-20T22:19:22.437Z,101465.45
2019-04-20T22:21:46.270Z,101457.51
2019-04-20T22:24:19.470Z,101463.44
2019-04-20T22:26:47.811Z,101467.45
2019-04-20T22:29:02.535Z,101470.78
2019-04-20T22:31:29.953Z,101467.98
2019-04-20T22:34:02.281Z,101465.68
2019-04-20T22:36:34.123Z,101461.73
2019-04-20T22:39:13.794Z,101464.55
2019-04-20T22:41:59.124Z,101466.38
2019-04-20T22:44:26.323Z,101466.02
2019-04-20T22:46:52.165Z,101464.81
2019-04-20T22:49:36.344Z,101459.63
2019-04-20T22:51:58.819Z,101460.01
2019-04-20T22:54:36.346Z,101465.08
2019-04-20T22:56:57.200Z,101464.95
2019-04-20T22:59:22.394Z,101458.70
2019-04-20T23:01:51.471Z,101465.35
2019-04-20T23:04:15.010Z,101459.80
2019-04-20T23:06:47.727Z,101460.42
2019-04-20T23:09:14.723Z,101452.93
2019-04-20T23:11:42.109Z,101453.05
2019-04-20T23:14:10.850Z,101454.83
2019-04-20T23:16:43.871Z,101453.74
2019-04-20T23:19:08.047Z,101458.08
2019-04-20T23:21:35.373Z,101459.67
2019-04-20T23:24:07.663Z,101455.69
2019-04-20T23:26:36.866Z,101450.41
2019-04-20T23:29:02.693Z,101448.22
2019-04-20T23:31:30.746Z,101442.81
2019-04-20T23:34:01.401Z,101445.47
2019-04-20T23:36:36.506Z,101445.70
2019-04-20T23:39:02.596Z,101443.66
2019-04-20T23:41:28.016Z,101439.34
2019-04-20T23:44:29.670Z,101437.04
2019-04-20T23:47:21.871Z,101430.92
2019-04-20T23:50:12.074Z,101434.05
2019-04-20T23:52:42.823Z,101430.92
2019-04-20T23:54:59.095Z,101431.80
2019-04-20T23:57:22.216Z,101423.48
2019-04-20T23:59:50.287Z,101421.55
